Latest Coastal Weather Observations for Marion Reef

IDQ60701

Issued at 11:31 pm EST Saturday 29 April 2017 (issued every 10 minutes, with the page automatically refreshed every 10 minutes)

About coastal observations | Map of coastal stations | Coastal observations for QLD | Marine services | Other Formats
Station Details ID: 200704 Name: MARION REEF Lat: -19.10 Lon: 152.39 Height: 2.0 m
Data from the previous 72 hours. | See also: Recent months for locations in Queensland
Date/Time
EST
Temp
°C
Wind Pressure Rain since
9am
mm
Weather Cloud Vis
km
Sea
Height
m
Swell
Dir  Spd
kts
Gust
kts
hPa Trend Height
m
Period
s
Dir
29/11:30pm 25.7 SSE 18 22 1014.3 - - - - - - - - -
29/11:00pm 25.7 SSE 19 22 1014.2 - - - - - - - - -
29/10:30pm 25.5 SSE 19 23 1014.4 - - - - - - - - -
29/10:00pm 25.6 SE 20 23 1014.2 - - - - - - - - -
29/09:30pm 25.5 SSE 18 21 1014.5 - - - - - - - - -
29/09:00pm 25.6 SSE 19 21 1014.5 - - - - - - - - -
29/08:30pm 25.4 SSE 18 22 1014.6 - - - - - - - - -
29/08:00pm 25.5 SSE 19 22 1014.3 - - - - - - - - -
29/07:30pm 24.8 ESE 15 19 1014.2 - - - - - - - - -
29/07:00pm 24.1 ESE 22 26 1014.0 - - - - - - - - -
29/06:50pm 24.5 SE 23 28 1013.9 - - - - - - - - -
29/06:47pm 25.5 SSE 18 28 1013.8 - - - - - - - - -
29/06:30pm 25.0 SE 18 24 1013.8 - - - - - - - - -
29/06:24pm 24.7 SE 20 24 1013.8 - - - - - - - - -
29/06:00pm 25.4 S 19 23 1013.6 - - - - - - - - -
29/05:30pm 25.3 SSE 15 20 1013.6 - - - - - - - - -
29/05:00pm 24.7 SSE 14 17 1013.2 - - - - - - - - -
29/04:30pm 24.5 ESE 16 19 1013.0 - - - - - - - - -
29/04:00pm 24.4 SE 20 24 1012.7 - - - - - - - - -
29/03:30pm 24.1 SSE 20 25 1012.4 - - - - - - - - -
29/03:00pm 23.6 SSE 22 28 1012.4 - - - - - - - - -
29/02:57pm 24.4 SSE 19 28 1012.3 - - - - - - - - -
29/02:30pm 25.5 SSE 14 17 1012.3 - - - - - - - - -
29/02:00pm 25.1 SE 13 12 1012.4 - - - - - - - - -
29/01:30pm 23.8 E 12 20 1012.9 - - - - - - - - -
29/01:27pm 23.4 ESE 16 26 1013.0 - - - - - - - - -
29/01:18pm 23.9 SE 22 26 1012.8 - - - - - - - - -
29/01:00pm 24.8 SSE 14 16 1012.9 - - - - - - - - -
29/12:30pm 25.2 S 10 14 1013.5 - - - - - - - - -
29/12:00pm 24.9 S 10 12 1013.7 - - - - - - - - -
29/11:30am 24.6 SSW 11 14 1014.2 - - - - - - - - -
29/11:00am 25.0 SSW 12 13 1014.4 - - - - - - - - -
29/10:30am 25.1 S 9 13 1014.9 - - - - - - - - -
29/10:00am 24.8 S 9 11 1015.1 - - - - - - - - -
29/09:30am 25.0 S 9 12 1015.1 - - - - - - - - -
29/09:00am 24.4 SSE 11 13 1014.9 - - - - - - - - -
29/08:30am 24.4 S 10 13 1014.9 - - - - - - - - -
29/08:00am 24.5 SSE 10 14 1014.5 - - - - - - - - -
29/07:30am 24.1 SSE 11 14 1014.3 - - - - - - - - -
29/07:00am 24.0 SSE 11 19 1014.1 - - - - - - - - -
29/06:30am 23.7 SSE 12 15 1013.9 - - - - - - - - -
29/06:00am 23.5 SSE 11 16 1013.5 - - - - - - - - -
29/05:30am 23.3 SSE 13 17 1013.2 - - - - - - - - -
29/05:00am 23.2 S 10 13 1013.0 - - - - - - - - -
29/04:30am 23.1 S 11 13 1013.0 - - - - - - - - -
29/04:00am 22.9 S 10 13 1012.9 - - - - - - - - -
29/03:30am 22.9 S 11 15 1013.1 - - - - - - - - -
29/03:00am 23.0 S 13 18 1013.1 - - - - - - - - -
29/02:30am 23.1 S 14 18 1013.3 - - - - - - - - -
29/02:00am 23.1 S 12 17 1013.2 - - - - - - - - -
29/01:30am 23.5 SSE 14 17 1013.7 - - - - - - - - -
29/01:00am 23.1 S 12 19 1014.0 - - - - - - - - -
29/12:30am 23.2 SSE 13 17 1014.3 - - - - - - - - -
29/12:00am 23.0 S 16 21 1014.3 - - - - - - - - -
 
Date/Time
EST
Temp
°C
Wind Pressure Rain since
9am
mm
Weather Cloud Vis
km
Sea
Height
m
Swell
Dir  Spd
kts
Gust
kts
hPa Trend Height
m
Period
s
Dir
28/11:30pm 23.0 S 14 17 1014.8 - - - - - - - - -
28/11:00pm 23.1 S 15 19 1014.8 - - - - - - - - -
28/10:30pm 23.1 S 15 19 1014.9 - - - - - - - - -
28/10:00pm 23.0 S 15 19 1014.9 - - - - - - - - -
28/09:30pm 22.9 S 16 20 1015.1 - - - - - - - - -
28/09:00pm 22.8 S 15 19 1014.8 - - - - - - - - -
28/08:30pm 23.0 S 14 17 1014.7 - - - - - - - - -
28/08:00pm 22.8 S 16 21 1014.6 - - - - - - - - -
28/07:30pm 22.8 S 15 19 1014.4 - - - - - - - - -
28/07:00pm 22.8 S 17 21 1014.1 - - - - - - - - -
28/06:30pm 22.9 S 16 20 1013.9 - - - - - - - - -
28/06:00pm 23.0 S 16 21 1013.5 - - - - - - - - -
28/05:30pm 23.0 S 15 18 1013.2 - - - - - - - - -
28/05:00pm 23.0 S 16 19 1012.8 - - - - - - - - -
28/04:30pm 23.3 S 17 21 1012.3 - - - - - - - - -
28/04:00pm 23.5 S 17 23 1012.2 - - - - - - - - -
28/03:30pm 23.4 S 17 22 1012.1 - - - - - - - - -
28/03:00pm 23.9 S 17 23 1011.9 - - - - - - - - -
28/02:30pm 23.6 S 18 23 1012.0 - - - - - - - - -
28/02:00pm 23.5 S 19 23 1012.1 - - - - - - - - -
28/01:30pm 24.0 S 20 23 1012.4 - - - - - - - - -
28/01:00pm 24.1 S 18 22 1012.5 - - - - - - - - -
28/12:30pm 24.2 S 19 23 1013.1 - - - - - - - - -
28/12:00pm 24.2 S 19 22 1013.3 - - - - - - - - -
28/11:30am 24.3 S 21 24 1013.5 - - - - - - - - -
28/11:00am 24.6 S 20 23 1013.7 - - - - - - - - -
28/10:30am 24.5 S 20 24 1014.1 - - - - - - - - -
28/10:00am 25.1 S 20 24 1014.2 - - - - - - - - -
28/09:30am 24.9 S 20 23 1014.3 - - - - - - - - -
28/09:00am 25.0 S 20 24 1014.1 - - - - - - - - -
28/08:30am 25.0 S 21 24 1014.1 - - - - - - - - -
28/08:00am 24.9 S 22 26 1013.7 - - - - - - - - -
28/07:30am 25.0 S 23 28 1013.4 - - - - - - - - -
28/07:00am 24.9 S 22 29 1012.9 - - - - - - - - -
28/06:30am 25.4 S 24 27 1012.6 - - - - - - - - -
28/06:00am 24.1 S 20 22 1012.4 - - - - - - - - -
28/05:30am 23.4 S 21 26 1012.1 - - - - - - - - -
28/05:00am 22.9 S 21 27 1012.0 - - - - - - - - -
28/04:58am 23.5 S 17 27 1011.9 - - - - - - - - -
28/04:30am 23.7 SSE 15 18 1011.8 - - - - - - - - -
28/04:00am 24.0 SSE 12 15 1011.5 - - - - - - - - -
28/03:30am 23.2 S 15 21 1011.8 - - - - - - - - -
28/03:00am 22.8 S 21 33 1011.5 - - - - - - - - -
28/02:37am 25.0 SSW 24 28 1011.3 - - - - - - - - -
28/02:30am 25.7 SW 10 12 1011.5 - - - - - - - - -
28/02:00am 25.8 SW 8 9 1011.4 - - - - - - - - -
28/01:30am 25.8 SSW 8 11 1011.6 - - - - - - - - -
28/01:00am 25.7 S 7 9 1011.7 - - - - - - - - -
28/12:30am 25.9 SSW 8 10 1012.2 - - - - - - - - -
28/12:00am 25.8 SSW 8 9 1012.0 - - - - - - - - -
 
Date/Time
EST
Temp
°C
Wind Pressure Rain since
9am
mm
Weather Cloud Vis
km
Sea
Height
m
Swell
Dir  Spd
kts
Gust
kts
hPa Trend Height
m
Period
s
Dir
27/11:30pm 25.8 SSW 8 10 1012.5 - - - - - - - - -
27/11:00pm 25.9 SSW 9 10 1012.5 - - - - - - - - -
27/10:30pm 26.1 S 11 13 1012.7 - - - - - - - - -
27/10:00pm 26.1 SSW 12 14 1012.8 - - - - - - - - -
27/09:30pm 26.0 SSW 11 13 1013.1 - - - - - - - - -
27/09:00pm 26.0 SSW 12 14 1012.9 - - - - - - - - -
27/08:30pm 25.9 SSW 6 8 1012.8 - - - - - - - - -
27/08:00pm 25.9 SSW 8 11 1012.7 - - - - - - - - -
27/07:30pm 25.9 SSW 7 9 1012.4 - - - - - - - - -
27/07:00pm 25.9 SSW 6 8 1012.1 - - - - - - - - -
27/06:30pm 25.7 SW 5 6 1011.8 - - - - - - - - -
27/06:00pm 25.9 SW 7 10 1011.4 - - - - - - - - -
27/05:30pm 25.8 SW 8 10 1011.1 - - - - - - - - -
27/05:00pm 26.0 SW 8 9 1010.9 - - - - - - - - -
27/04:00pm 25.8 SSW 7 9 1010.4 - - - - - - - - -
27/03:30pm 26.0 SW 8 10 1010.2 - - - - - - - - -
27/03:00pm 25.8 SW 7 - 1010.2 - - - - - - - - -
27/02:30pm 26.0 SW 8 10 1010.3 - - - - - - - - -
27/02:00pm 26.2 SW 6 - 1010.5 - - - - - - - - -
27/01:00pm 26.0 SW 6 - 1011.1 - - - - - - - - -
27/12:30pm 25.7 SW 8 10 1011.6 - - - - - - - - -
27/12:00pm 25.6 SW 10 11 1011.8 - - - - - - - - -
27/11:30am 25.8 SW 9 11 1012.7 - - - - - - - - -
27/11:00am 25.8 SSW 8 10 1012.9 - - - - - - - - -
27/10:30am 25.9 SSW 8 9 1013.5 - - - - - - - - -
27/10:00am 25.7 SSW 6 7 1013.5 - - - - - - - - -
27/09:30am 25.9 S 4 5 1013.5 - - - - - - - - -
27/09:00am 25.8 SSE 3 4 1013.3 - - - - - - - - -
27/08:30am 25.9 SE 2 4 1013.2 - - - - - - - - -
27/08:00am 27.3 NE 3 5 1012.8 - - - - - - - - -
27/07:30am 27.4 CALM 0 3 1012.5 - - - - - - - - -
27/07:00am 26.7 CALM 0 0 1012.2 - - - - - - - - -
27/06:30am 25.1 SSE 1 3 1012.1 - - - - - - - - -
27/06:00am 24.8 ENE 2 5 1011.7 - - - - - - - - -
27/05:30am 24.9 ESE 1 6 1011.6 - - - - - - - - -
27/05:00am 24.7 CALM 0 2 1011.4 - - - - - - - - -
27/04:30am 24.9 CALM 0 3 1011.5 - - - - - - - - -
27/04:00am 24.9 CALM 0 0 1011.2 - - - - - - - - -
27/03:30am 25.1 CALM 0 1 1011.4 - - - - - - - - -
27/03:00am 25.1 CALM 0 2 1011.2 - - - - - - - - -
27/02:30am 25.2 CALM 0 2 1011.6 - - - - - - - - -
27/02:00am 25.1 CALM 0 0 1011.7 - - - - - - - - -
27/01:30am 25.2 CALM 0 2 1011.9 - - - - - - - - -
27/01:00am 25.3 CALM 0 1 1012.1 - - - - - - - - -
27/12:30am 25.4 CALM 0 1 1012.5 - - - - - - - - -
27/12:00am 25.6 ESE 3 5 1012.7 - - - - - - - - -

Other Formats:

Comma delimited format used in spreadsheet applications
http://www.bom.gov.au/fwo/IDQ60701/IDQ60701.94298.axf

JavaScript Object Notation format (JSON) in row-major order
http://www.bom.gov.au/fwo/IDQ60701/IDQ60701.94298.json